ANZ24 LSZH-YSSY
Flight info
| Callsign | ANZ24 |
|---|---|
| Flight time | N/A |
| Altitude | 40997 |
| Route | DEGES DCT XEBIX Z2 UMVEG DCT VEKEN DCT MAGAM DCT ETIDA/N0487F330 Q7 IVGOT L744 UDROS UM859 KARDE UN644 ROLIN N644 LAGAS M747 SULEL N449 DUKAN B449 ZAMIR/N0487F350 B449 RANAH L750 ZB G201 BINDO L750 MERUN L333 JJP J1 KKJ L759 MABUR/N0492F370 L759 PUT B579 VPL W531 VIH A464 VKL Y507 MAKNA Y511 TOPOR A464 ARAMA P501 ANITO B470 PKP/N0484F390 L511 SBR M766 BLI M635 ATMAP A576 LEKAD/N0479F410 A576 PKS W440 RUPEM V599 DARGI W652 ODALE |
| Aircraft | B77W/H-SDE1E2E3FGHIJ2J3J4J5M1RWXY/LB1D1 |
Departure
| Time | N/A |
|---|---|
| Airport | Zürich Airport (LSZH) |
Arrival
| Time | 2026-04-24 10:08 |
|---|---|
| Airport | Sydney Kingsford Smith International Airport (YSSY) |
| Time | Latitude | Longitude | Altitude | Speed | Heading |
|---|---|---|---|---|---|
| 2026-04-24 07:58 | -25.64755 | 136.37476 | 41184 ft | 495 kts | 139° |
| 2026-04-24 07:58 | -25.66906 | 136.40451 | 41189 ft | 497 kts | 139° |
| 2026-04-24 07:59 | -25.71238 | 136.46446 | 41189 ft | 496 kts | 139° |
| 2026-04-24 07:59 | -25.75561 | 136.52434 | 41183 ft | 497 kts | 139° |
| 2026-04-24 08:00 | -25.79861 | 136.58403 | 41190 ft | 496 kts | 139° |
| 2026-04-24 08:00 | -25.84194 | 136.64421 | 41188 ft | 496 kts | 139° |
| 2026-04-24 08:01 | -25.88513 | 136.70428 | 41172 ft | 498 kts | 138° |
| 2026-04-24 08:01 | -25.92803 | 136.76402 | 41179 ft | 501 kts | 138° |
| 2026-04-24 08:02 | -25.97124 | 136.82437 | 41179 ft | 497 kts | 138° |
| 2026-04-24 08:02 | -26.01417 | 136.88434 | 41181 ft | 498 kts | 139° |
| 2026-04-24 08:03 | -26.05730 | 136.94469 | 41178 ft | 497 kts | 139° |
| 2026-04-24 08:03 | -26.09998 | 137.00450 | 41185 ft | 494 kts | 139° |
| 2026-04-24 08:04 | -26.14305 | 137.06491 | 41193 ft | 495 kts | 139° |
| 2026-04-24 08:04 | -26.18597 | 137.12520 | 41191 ft | 494 kts | 139° |
| 2026-04-24 08:05 | -26.22868 | 137.18524 | 41185 ft | 495 kts | 139° |
| 2026-04-24 08:05 | -26.27155 | 137.24564 | 41186 ft | 494 kts | 139° |
| 2026-04-24 08:06 | -26.31433 | 137.30591 | 41183 ft | 498 kts | 139° |
| 2026-04-24 08:06 | -26.35726 | 137.36653 | 41182 ft | 498 kts | 139° |
| 2026-04-24 08:07 | -26.40001 | 137.42700 | 41179 ft | 497 kts | 139° |
| 2026-04-24 08:07 | -26.44306 | 137.48796 | 41181 ft | 499 kts | 139° |
| 2026-04-24 08:08 | -26.48577 | 137.54854 | 41186 ft | 494 kts | 139° |
| 2026-04-24 08:09 | -26.54981 | 137.63942 | 41185 ft | 499 kts | 139° |
| 2026-04-24 08:09 | -26.59242 | 137.70007 | 41167 ft | 496 kts | 139° |
| 2026-04-24 08:10 | -26.63514 | 137.76091 | 41173 ft | 496 kts | 140° |
| 2026-04-24 08:10 | -26.67764 | 137.82153 | 41169 ft | 494 kts | 139° |
| 2026-04-24 08:11 | -26.72021 | 137.88229 | 41172 ft | 500 kts | 139° |
| 2026-04-24 08:11 | -26.76280 | 137.94325 | 41167 ft | 496 kts | 140° |
| 2026-04-24 08:12 | -26.80563 | 138.00461 | 41171 ft | 493 kts | 139° |
| 2026-04-24 08:12 | -26.84809 | 138.06545 | 41179 ft | 500 kts | 140° |
| 2026-04-24 08:13 | -26.89074 | 138.12671 | 41181 ft | 498 kts | 140° |
| 2026-04-24 08:13 | -26.93321 | 138.18782 | 41179 ft | 494 kts | 140° |
| 2026-04-24 08:14 | -26.97554 | 138.24881 | 41178 ft | 493 kts | 140° |
| 2026-04-24 08:14 | -27.01759 | 138.30946 | 41175 ft | 491 kts | 140° |
| 2026-04-24 08:15 | -27.05945 | 138.36990 | 41179 ft | 492 kts | 140° |
| 2026-04-24 08:15 | -27.10149 | 138.43072 | 41181 ft | 492 kts | 141° |
| 2026-04-24 08:16 | -27.14348 | 138.49152 | 41195 ft | 492 kts | 140° |
| 2026-04-24 08:16 | -27.18553 | 138.55250 | 41192 ft | 490 kts | 141° |
| 2026-04-24 08:17 | -27.22691 | 138.61261 | 41192 ft | 491 kts | 141° |
| 2026-04-24 08:17 | -27.26872 | 138.67340 | 41162 ft | 488 kts | 140° |
| 2026-04-24 08:18 | -27.31039 | 138.73406 | 41174 ft | 494 kts | 140° |
| 2026-04-24 08:18 | -27.35215 | 138.79498 | 41174 ft | 491 kts | 140° |
| 2026-04-24 08:19 | -27.39339 | 138.85521 | 41179 ft | 489 kts | 140° |
| 2026-04-24 08:19 | -27.43512 | 138.91621 | 41184 ft | 491 kts | 140° |
| 2026-04-24 08:20 | -27.47651 | 138.97688 | 41184 ft | 487 kts | 140° |
| 2026-04-24 08:20 | -27.51782 | 139.03742 | 41182 ft | 487 kts | 140° |
| 2026-04-24 08:21 | -27.55904 | 139.09798 | 41193 ft | 485 kts | 140° |
| 2026-04-24 08:21 | -27.60027 | 139.15854 | 41190 ft | 490 kts | 140° |
| 2026-04-24 08:22 | -27.64173 | 139.21962 | 41192 ft | 486 kts | 140° |
| 2026-04-24 08:22 | -27.68267 | 139.27995 | 41197 ft | 490 kts | 140° |
| 2026-04-24 08:23 | -27.72383 | 139.34079 | 41194 ft | 484 kts | 140° |
| 2026-04-24 08:23 | -27.76463 | 139.40109 | 41192 ft | 486 kts | 140° |
| 2026-04-24 08:24 | -27.80595 | 139.46223 | 41198 ft | 491 kts | 140° |
| 2026-04-24 08:24 | -27.84739 | 139.52373 | 41197 ft | 487 kts | 140° |
| 2026-04-24 08:25 | -27.88831 | 139.58449 | 41209 ft | 490 kts | 140° |
| 2026-04-24 08:25 | -27.92928 | 139.64545 | 41207 ft | 486 kts | 140° |
| 2026-04-24 08:26 | -27.97058 | 139.70691 | 41185 ft | 487 kts | 139° |
| 2026-04-24 08:26 | -28.01163 | 139.76813 | 41185 ft | 488 kts | 139° |
| 2026-04-24 08:27 | -28.05253 | 139.82919 | 41187 ft | 487 kts | 139° |
| 2026-04-24 08:27 | -28.09329 | 139.89017 | 41191 ft | 486 kts | 139° |
| 2026-04-24 08:28 | -28.13412 | 139.95129 | 41197 ft | 487 kts | 139° |
| 2026-04-24 08:28 | -28.17522 | 140.01297 | 41211 ft | 485 kts | 139° |
| 2026-04-24 08:29 | -28.21561 | 140.07364 | 41210 ft | 484 kts | 139° |
| 2026-04-24 08:29 | -28.25645 | 140.13506 | 41217 ft | 484 kts | 139° |
| 2026-04-24 08:30 | -28.29708 | 140.19624 | 41216 ft | 486 kts | 138° |
| 2026-04-24 08:30 | -28.33772 | 140.25752 | 41221 ft | 487 kts | 138° |
| 2026-04-24 08:31 | -28.37840 | 140.31902 | 41230 ft | 486 kts | 138° |
| 2026-04-24 08:31 | -28.41935 | 140.38094 | 41220 ft | 486 kts | 138° |
| 2026-04-24 08:32 | -28.46018 | 140.44281 | 41240 ft | 487 kts | 137° |
| 2026-04-24 08:32 | -28.50077 | 140.50436 | 41232 ft | 489 kts | 137° |
| 2026-04-24 08:33 | -28.54159 | 140.56644 | 41241 ft | 485 kts | 137° |
| 2026-04-24 08:33 | -28.58191 | 140.62778 | 41243 ft | 486 kts | 137° |
| 2026-04-24 08:34 | -28.62279 | 140.69003 | 41224 ft | 489 kts | 136° |
| 2026-04-24 08:34 | -28.66327 | 140.75185 | 41222 ft | 488 kts | 136° |
| 2026-04-24 08:35 | -28.70372 | 140.81366 | 41236 ft | 487 kts | 136° |
| 2026-04-24 08:35 | -28.74416 | 140.87556 | 41240 ft | 485 kts | 136° |
| 2026-04-24 08:36 | -28.78453 | 140.93744 | 41234 ft | 486 kts | 135° |
| 2026-04-24 08:36 | -28.82458 | 140.99895 | 41230 ft | 484 kts | 135° |
| 2026-04-24 08:37 | -28.86482 | 141.06081 | 41234 ft | 482 kts | 135° |
| 2026-04-24 08:37 | -28.90468 | 141.12216 | 41237 ft | 481 kts | 135° |
| 2026-04-24 08:38 | -28.94460 | 141.18370 | 41247 ft | 483 kts | 135° |
| 2026-04-24 08:38 | -28.98470 | 141.24562 | 41243 ft | 483 kts | 135° |
| 2026-04-24 08:39 | -29.02459 | 141.30731 | 41258 ft | 484 kts | 135° |
| 2026-04-24 08:39 | -29.06458 | 141.36923 | 41256 ft | 484 kts | 135° |
| 2026-04-24 08:40 | -29.10434 | 141.43089 | 41261 ft | 486 kts | 135° |
| 2026-04-24 08:40 | -29.14427 | 141.49293 | 41273 ft | 484 kts | 135° |
| 2026-04-24 08:41 | -29.18393 | 141.55463 | 41282 ft | 484 kts | 134° |
| 2026-04-24 08:41 | -29.22397 | 141.61700 | 41283 ft | 485 kts | 134° |
| 2026-04-24 08:42 | -29.26359 | 141.67885 | 41269 ft | 485 kts | 134° |
| 2026-04-24 08:42 | -29.30326 | 141.74083 | 41273 ft | 483 kts | 134° |
| 2026-04-24 08:43 | -29.34306 | 141.80313 | 41281 ft | 480 kts | 134° |
| 2026-04-24 08:43 | -29.38291 | 141.86557 | 41271 ft | 483 kts | 133° |
| 2026-04-24 08:44 | -29.42237 | 141.92754 | 41285 ft | 482 kts | 133° |
| 2026-04-24 08:44 | -29.46164 | 141.98927 | 41286 ft | 480 kts | 133° |
| 2026-04-24 08:45 | -29.50126 | 142.05164 | 41297 ft | 481 kts | 133° |
| 2026-04-24 08:45 | -29.54042 | 142.11339 | 41301 ft | 481 kts | 133° |
| 2026-04-24 08:46 | -29.57999 | 142.17587 | 41307 ft | 482 kts | 133° |
| 2026-04-24 08:46 | -29.61933 | 142.23808 | 41300 ft | 481 kts | 133° |
| 2026-04-24 08:47 | -29.65835 | 142.29990 | 41303 ft | 481 kts | 133° |
| 2026-04-24 08:47 | -29.69789 | 142.36264 | 41293 ft | 479 kts | 133° |
| 2026-04-24 08:48 | -29.73715 | 142.42502 | 41308 ft | 479 kts | 133° |
| 2026-04-24 08:48 | -29.77644 | 142.48752 | 41304 ft | 479 kts | 133° |
| 2026-04-24 08:49 | -29.81535 | 142.54953 | 41300 ft | 479 kts | 133° |
| 2026-04-24 08:49 | -29.85414 | 142.61147 | 41305 ft | 476 kts | 132° |
| 2026-04-24 08:50 | -29.89261 | 142.67294 | 41289 ft | 478 kts | 132° |
| 2026-04-24 08:50 | -29.93165 | 142.73549 | 41289 ft | 475 kts | 132° |
| 2026-04-24 08:51 | -29.97012 | 142.79721 | 41288 ft | 476 kts | 132° |
| 2026-04-24 08:51 | -30.00879 | 142.85936 | 41289 ft | 475 kts | 132° |
| 2026-04-24 08:52 | -30.04724 | 142.92122 | 41293 ft | 476 kts | 132° |
| 2026-04-24 08:52 | -30.08596 | 142.98363 | 41297 ft | 475 kts | 132° |
| 2026-04-24 08:53 | -30.12449 | 143.04585 | 41304 ft | 474 kts | 131° |
| 2026-04-24 08:53 | -30.16275 | 143.10773 | 41311 ft | 473 kts | 131° |
| 2026-04-24 08:54 | -30.20103 | 143.16974 | 41315 ft | 473 kts | 131° |
| 2026-04-24 08:54 | -30.23915 | 143.23160 | 41310 ft | 474 kts | 131° |
| 2026-04-24 08:55 | -30.27733 | 143.29367 | 41315 ft | 475 kts | 131° |
| 2026-04-24 08:55 | -30.31571 | 143.35617 | 41315 ft | 474 kts | 131° |
| 2026-04-24 08:56 | -30.35366 | 143.41806 | 41317 ft | 473 kts | 131° |
| 2026-04-24 08:56 | -30.39174 | 143.48027 | 41325 ft | 470 kts | 131° |
| 2026-04-24 08:57 | -30.42964 | 143.54225 | 41317 ft | 472 kts | 131° |
| 2026-04-24 08:57 | -30.46777 | 143.60472 | 41328 ft | 473 kts | 131° |
| 2026-04-24 08:58 | -30.50563 | 143.66685 | 41318 ft | 471 kts | 130° |
| 2026-04-24 08:58 | -30.54359 | 143.72925 | 41337 ft | 472 kts | 130° |
| 2026-04-24 08:59 | -30.58118 | 143.79112 | 41339 ft | 471 kts | 130° |
| 2026-04-24 08:59 | -30.61899 | 143.85345 | 41332 ft | 472 kts | 130° |
| 2026-04-24 09:00 | -30.65667 | 143.91568 | 41325 ft | 470 kts | 130° |
| 2026-04-24 09:00 | -30.69440 | 143.97807 | 41342 ft | 472 kts | 130° |
| 2026-04-24 09:01 | -30.73205 | 144.04044 | 41346 ft | 471 kts | 130° |
| 2026-04-24 09:01 | -30.76950 | 144.10255 | 41335 ft | 470 kts | 130° |
| 2026-04-24 09:02 | -30.80681 | 144.16457 | 41347 ft | 470 kts | 130° |
| 2026-04-24 09:02 | -30.84439 | 144.22711 | 41317 ft | 470 kts | 130° |
| 2026-04-24 09:03 | -30.88180 | 144.28947 | 41329 ft | 470 kts | 130° |
| 2026-04-24 09:03 | -30.91904 | 144.35164 | 41349 ft | 470 kts | 130° |
| 2026-04-24 09:04 | -30.95638 | 144.41406 | 41321 ft | 470 kts | 130° |
| 2026-04-24 09:04 | -30.99349 | 144.47623 | 41350 ft | 468 kts | 130° |
| 2026-04-24 09:05 | -31.03065 | 144.53856 | 41337 ft | 468 kts | 129° |
| 2026-04-24 09:05 | -31.06800 | 144.60130 | 41347 ft | 468 kts | 130° |
| 2026-04-24 09:06 | -31.10497 | 144.66351 | 41354 ft | 469 kts | 129° |
| 2026-04-24 09:06 | -31.14211 | 144.72612 | 41358 ft | 469 kts | 129° |
| 2026-04-24 09:07 | -31.17907 | 144.78853 | 41358 ft | 468 kts | 129° |
| 2026-04-24 09:07 | -31.23466 | 144.88254 | 41348 ft | 468 kts | 128° |
| 2026-04-24 09:08 | -31.27145 | 144.94490 | 41355 ft | 467 kts | 128° |
| 2026-04-24 09:08 | -31.30857 | 145.00792 | 41352 ft | 468 kts | 128° |
| 2026-04-24 09:09 | -31.34529 | 145.07037 | 41352 ft | 468 kts | 128° |
| 2026-04-24 09:09 | -31.38200 | 145.13289 | 41362 ft | 466 kts | 128° |
| 2026-04-24 09:10 | -31.41873 | 145.19554 | 41371 ft | 465 kts | 128° |
| 2026-04-24 09:10 | -31.45521 | 145.25787 | 41378 ft | 466 kts | 128° |
| 2026-04-24 09:11 | -31.49189 | 145.32065 | 41377 ft | 466 kts | 128° |
| 2026-04-24 09:11 | -31.52832 | 145.38309 | 41382 ft | 465 kts | 128° |
| 2026-04-24 09:12 | -31.56480 | 145.44572 | 41382 ft | 465 kts | 128° |
| 2026-04-24 09:12 | -31.60151 | 145.50886 | 41384 ft | 465 kts | 128° |
| 2026-04-24 09:13 | -31.63774 | 145.57127 | 41390 ft | 462 kts | 128° |
| 2026-04-24 09:13 | -31.67391 | 145.63367 | 41386 ft | 463 kts | 128° |
| 2026-04-24 09:14 | -31.71017 | 145.69634 | 41388 ft | 462 kts | 128° |
| 2026-04-24 09:14 | -31.74630 | 145.75888 | 41390 ft | 462 kts | 128° |
| 2026-04-24 09:15 | -31.78231 | 145.82129 | 41390 ft | 462 kts | 128° |
| 2026-04-24 09:15 | -31.81832 | 145.88384 | 41391 ft | 462 kts | 128° |
| 2026-04-24 09:16 | -31.85438 | 145.94655 | 41394 ft | 461 kts | 128° |
| 2026-04-24 09:16 | -31.89023 | 146.00902 | 41393 ft | 459 kts | 127° |
| 2026-04-24 09:17 | -31.92594 | 146.07134 | 41380 ft | 459 kts | 127° |
| 2026-04-24 09:17 | -31.96144 | 146.13339 | 41378 ft | 458 kts | 128° |
| 2026-04-24 09:18 | -31.99704 | 146.19569 | 41383 ft | 459 kts | 128° |
| 2026-04-24 09:18 | -32.03257 | 146.25801 | 41375 ft | 459 kts | 128° |
| 2026-04-24 09:19 | -32.06812 | 146.32045 | 41375 ft | 457 kts | 128° |
| 2026-04-24 09:19 | -32.10375 | 146.38312 | 41386 ft | 458 kts | 128° |
| 2026-04-24 09:20 | -32.13915 | 146.44553 | 41388 ft | 457 kts | 128° |
| 2026-04-24 09:20 | -32.17457 | 146.50804 | 41379 ft | 457 kts | 127° |
| 2026-04-24 09:21 | -32.20979 | 146.57033 | 41382 ft | 456 kts | 128° |
| 2026-04-24 09:21 | -32.24486 | 146.63243 | 41384 ft | 456 kts | 128° |
| 2026-04-24 09:22 | -32.28022 | 146.69514 | 41374 ft | 455 kts | 127° |
| 2026-04-24 09:22 | -32.31531 | 146.75749 | 41381 ft | 455 kts | 127° |
| 2026-04-24 09:23 | -32.35012 | 146.81944 | 41388 ft | 453 kts | 127° |
| 2026-04-24 09:23 | -32.38489 | 146.88142 | 41390 ft | 453 kts | 127° |
| 2026-04-24 09:24 | -32.41981 | 146.94380 | 41391 ft | 453 kts | 127° |
| 2026-04-24 09:24 | -32.45449 | 147.00581 | 41388 ft | 453 kts | 127° |
| 2026-04-24 09:25 | -32.48954 | 147.06860 | 41392 ft | 454 kts | 127° |
| 2026-04-24 09:25 | -32.52425 | 147.13088 | 41393 ft | 454 kts | 127° |
| 2026-04-24 09:26 | -32.55914 | 147.19360 | 41393 ft | 454 kts | 127° |
| 2026-04-24 09:26 | -32.59387 | 147.25613 | 41389 ft | 453 kts | 127° |
| 2026-04-24 09:27 | -32.62848 | 147.31856 | 41390 ft | 453 kts | 127° |
| 2026-04-24 09:27 | -32.66276 | 147.38048 | 41385 ft | 451 kts | 127° |
| 2026-04-24 09:28 | -32.69724 | 147.44287 | 41385 ft | 451 kts | 127° |
| 2026-04-24 09:28 | -32.73176 | 147.50543 | 41397 ft | 451 kts | 127° |
| 2026-04-24 09:29 | -32.76608 | 147.56773 | 41387 ft | 452 kts | 127° |
| 2026-04-24 09:29 | -32.80049 | 147.63031 | 41393 ft | 452 kts | 127° |
| 2026-04-24 09:30 | -32.83991 | 147.70213 | 41393 ft | 453 kts | 126° |
| 2026-04-24 09:30 | -32.86856 | 147.75441 | 41391 ft | 452 kts | 127° |
| 2026-04-24 09:31 | -32.90257 | 147.81656 | 41397 ft | 451 kts | 127° |
| 2026-04-24 09:31 | -32.93695 | 147.87952 | 41407 ft | 450 kts | 127° |
| 2026-04-24 09:32 | -32.97104 | 147.94203 | 41415 ft | 450 kts | 127° |
| 2026-04-24 09:32 | -33.00498 | 148.00438 | 41422 ft | 449 kts | 127° |
| 2026-04-24 09:33 | -33.03896 | 148.06689 | 41420 ft | 450 kts | 127° |
| 2026-04-24 09:33 | -33.07307 | 148.12978 | 41418 ft | 449 kts | 127° |
| 2026-04-24 09:34 | -33.10695 | 148.19232 | 41428 ft | 449 kts | 127° |
| 2026-04-24 09:34 | -33.14093 | 148.25481 | 41438 ft | 448 kts | 128° |
| 2026-04-24 09:35 | -33.17610 | 148.31592 | 41435 ft | 446 kts | 128° |
| 2026-04-24 09:35 | -33.21129 | 148.37709 | 41426 ft | 447 kts | 128° |
| 2026-04-24 09:36 | -33.24645 | 148.43843 | 41430 ft | 447 kts | 128° |
| 2026-04-24 09:36 | -33.28161 | 148.49995 | 41433 ft | 447 kts | 128° |
| 2026-04-24 09:37 | -33.31650 | 148.56113 | 41427 ft | 446 kts | 128° |
| 2026-04-24 09:37 | -33.35138 | 148.62241 | 41416 ft | 445 kts | 128° |
| 2026-04-24 09:38 | -33.38638 | 148.68401 | 41411 ft | 446 kts | 128° |
| 2026-04-24 09:38 | -33.42081 | 148.74536 | 41420 ft | 446 kts | 124° |
| 2026-04-24 09:39 | -33.44842 | 148.81261 | 41441 ft | 450 kts | 119° |
| 2026-04-24 09:39 | -33.47465 | 148.88071 | 41437 ft | 449 kts | 119° |
| 2026-04-24 09:40 | -33.50075 | 148.94862 | 41449 ft | 451 kts | 119° |
| 2026-04-24 09:40 | -33.52703 | 149.01712 | 41477 ft | 450 kts | 119° |
| 2026-04-24 09:41 | -33.55301 | 149.08501 | 41461 ft | 448 kts | 119° |
| 2026-04-24 09:41 | -33.57898 | 149.15299 | 41464 ft | 449 kts | 119° |
| 2026-04-24 09:42 | -33.60492 | 149.22104 | 41469 ft | 447 kts | 118° |
| 2026-04-24 09:42 | -33.63066 | 149.28868 | 41471 ft | 447 kts | 118° |
| 2026-04-24 09:43 | -33.64336 | 149.32219 | 41249 ft | 437 kts | 119° |
| 2026-04-24 09:43 | -33.65605 | 149.35564 | 40424 ft | 439 kts | 119° |
| 2026-04-24 09:43 | -33.66868 | 149.38895 | 39320 ft | 440 kts | 119° |
| 2026-04-24 09:43 | -33.68129 | 149.42223 | 38358 ft | 442 kts | 119° |
| 2026-04-24 09:44 | -33.69410 | 149.45607 | 37470 ft | 442 kts | 118° |
| 2026-04-24 09:44 | -33.70667 | 149.48932 | 36597 ft | 441 kts | 118° |
| 2026-04-24 09:44 | -33.71939 | 149.52301 | 35426 ft | 445 kts | 118° |
| 2026-04-24 09:44 | -33.73219 | 149.55693 | 34568 ft | 442 kts | 118° |
| 2026-04-24 09:45 | -33.74465 | 149.59003 | 34062 ft | 432 kts | 118° |
| 2026-04-24 09:45 | -33.75687 | 149.62254 | 33386 ft | 420 kts | 118° |
| 2026-04-24 09:45 | -33.76876 | 149.65422 | 32365 ft | 413 kts | 117° |
| 2026-04-24 09:45 | -33.77974 | 149.68343 | 31488 ft | 411 kts | 117° |
| 2026-04-24 09:46 | -33.79138 | 149.71445 | 30750 ft | 406 kts | 116° |
| 2026-04-24 09:46 | -33.80284 | 149.74503 | 30043 ft | 401 kts | 116° |
| 2026-04-24 09:46 | -33.81412 | 149.77513 | 29333 ft | 396 kts | 116° |
| 2026-04-24 09:46 | -33.82547 | 149.80542 | 28530 ft | 393 kts | 116° |
| 2026-04-24 09:47 | -33.83652 | 149.83496 | 27718 ft | 392 kts | 116° |
| 2026-04-24 09:47 | -33.84773 | 149.86496 | 26916 ft | 389 kts | 115° |
| 2026-04-24 09:47 | -33.85869 | 149.89430 | 26136 ft | 387 kts | 115° |
| 2026-04-24 09:47 | -33.86957 | 149.92348 | 25361 ft | 384 kts | 115° |
| 2026-04-24 09:48 | -33.88046 | 149.95268 | 24575 ft | 382 kts | 115° |
| 2026-04-24 09:48 | -33.89135 | 149.98192 | 23799 ft | 380 kts | 114° |
| 2026-04-24 09:48 | -33.90207 | 150.01073 | 23012 ft | 378 kts | 114° |
| 2026-04-24 09:48 | -33.91264 | 150.03914 | 22250 ft | 372 kts | 114° |
| 2026-04-24 09:49 | -33.92306 | 150.06720 | 21258 ft | 367 kts | 114° |
| 2026-04-24 09:49 | -33.93342 | 150.09511 | 19947 ft | 370 kts | 114° |
| 2026-04-24 09:49 | -33.94384 | 150.12318 | 18421 ft | 377 kts | 114° |
| 2026-04-24 09:49 | -33.95448 | 150.15190 | 17007 ft | 377 kts | 114° |
| 2026-04-24 09:50 | -33.96482 | 150.17984 | 16463 ft | 354 kts | 114° |
| 2026-04-24 09:50 | -33.97507 | 150.20755 | 16163 ft | 376 kts | 114° |
| 2026-04-24 09:50 | -33.98560 | 150.23602 | 15501 ft | 375 kts | 114° |
| 2026-04-24 09:50 | -33.99620 | 150.26474 | 14807 ft | 371 kts | 114° |
| 2026-04-24 09:51 | -34.00646 | 150.29254 | 14152 ft | 367 kts | 114° |
| 2026-04-24 09:51 | -34.01675 | 150.32048 | 13505 ft | 364 kts | 114° |
| 2026-04-24 09:51 | -34.02701 | 150.34833 | 12862 ft | 359 kts | 114° |
| 2026-04-24 09:51 | -34.03701 | 150.37549 | 12222 ft | 355 kts | 113° |
| 2026-04-24 09:52 | -34.04699 | 150.40262 | 11586 ft | 351 kts | 113° |
| 2026-04-24 09:52 | -34.05680 | 150.42932 | 10961 ft | 346 kts | 113° |
| 2026-04-24 09:52 | -34.06624 | 150.45502 | 10733 ft | 330 kts | 113° |
| 2026-04-24 09:52 | -34.07531 | 150.47972 | 10650 ft | 311 kts | 113° |
| 2026-04-24 09:53 | -34.08321 | 150.50319 | 10517 ft | 295 kts | 104° |
| 2026-04-24 09:53 | -34.08457 | 150.52719 | 10357 ft | 281 kts | 84° |
| 2026-04-24 09:53 | -34.08142 | 150.54982 | 10253 ft | 269 kts | 79° |
| 2026-04-24 09:53 | -34.07740 | 150.57152 | 10148 ft | 257 kts | 77° |
| 2026-04-24 09:54 | -34.07319 | 150.59206 | 10006 ft | 249 kts | 77° |
| 2026-04-24 09:54 | -34.06880 | 150.61273 | 9668 ft | 262 kts | 77° |
| 2026-04-24 09:54 | -34.06419 | 150.63420 | 9300 ft | 262 kts | 76° |
| 2026-04-24 09:54 | -34.05965 | 150.65527 | 8965 ft | 260 kts | 76° |
| 2026-04-24 09:55 | -34.05512 | 150.67624 | 8642 ft | 258 kts | 76° |
| 2026-04-24 09:55 | -34.05063 | 150.69705 | 8321 ft | 256 kts | 76° |
| 2026-04-24 09:55 | -34.04614 | 150.71782 | 8009 ft | 254 kts | 76° |
| 2026-04-24 09:55 | -34.04171 | 150.73828 | 7696 ft | 253 kts | 76° |
| 2026-04-24 09:56 | -34.03725 | 150.75890 | 7372 ft | 251 kts | 76° |
| 2026-04-24 09:56 | -34.03287 | 150.77910 | 7072 ft | 250 kts | 76° |
| 2026-04-24 09:56 | -34.02839 | 150.79909 | 6869 ft | 248 kts | 74° |
| 2026-04-24 09:56 | -34.02356 | 150.81944 | 6822 ft | 254 kts | 74° |
| 2026-04-24 09:57 | -34.01868 | 150.84012 | 6756 ft | 253 kts | 74° |
| 2026-04-24 09:57 | -34.01396 | 150.86024 | 6672 ft | 253 kts | 74° |
| 2026-04-24 09:57 | -34.00912 | 150.88086 | 6577 ft | 253 kts | 74° |
| 2026-04-24 09:57 | -34.00434 | 150.90126 | 6487 ft | 253 kts | 74° |
| 2026-04-24 09:58 | -33.99962 | 150.92133 | 6395 ft | 251 kts | 74° |
| 2026-04-24 09:58 | -33.99291 | 150.94067 | 6278 ft | 250 kts | 54° |
| 2026-04-24 09:58 | -33.97946 | 150.95403 | 6174 ft | 254 kts | 27° |
| 2026-04-24 09:58 | -33.96310 | 150.96213 | 6110 ft | 255 kts | 23° |
| 2026-04-24 09:59 | -33.94649 | 150.96973 | 6073 ft | 255 kts | 22° |
| 2026-04-24 09:59 | -33.93028 | 150.97714 | 6034 ft | 256 kts | 22° |
| 2026-04-24 09:59 | -33.91362 | 150.98441 | 5998 ft | 255 kts | 17° |
| 2026-04-24 09:59 | -33.89620 | 150.98892 | 5999 ft | 256 kts | 13° |
| 2026-04-24 10:00 | -33.87883 | 150.99289 | 6001 ft | 256 kts | 12° |
| 2026-04-24 10:00 | -33.86121 | 150.99695 | 5793 ft | 255 kts | 13° |
| 2026-04-24 10:00 | -33.84403 | 151.00084 | 5550 ft | 251 kts | 13° |
| 2026-04-24 10:00 | -33.82708 | 151.00462 | 5307 ft | 247 kts | 13° |
| 2026-04-24 10:01 | -33.81020 | 151.00838 | 5077 ft | 244 kts | 13° |
| 2026-04-24 10:01 | -33.79356 | 151.01209 | 4832 ft | 241 kts | 13° |
| 2026-04-24 10:01 | -33.77716 | 151.01567 | 4588 ft | 238 kts | 13° |
| 2026-04-24 10:01 | -33.76096 | 151.01921 | 4339 ft | 236 kts | 13° |
| 2026-04-24 10:02 | -33.74507 | 151.02293 | 4092 ft | 233 kts | 19° |
| 2026-04-24 10:02 | -33.73156 | 151.03290 | 3824 ft | 226 kts | 50° |
| 2026-04-24 10:02 | -33.72440 | 151.04941 | 3572 ft | 223 kts | 71° |
| 2026-04-24 10:02 | -33.71987 | 151.06700 | 3323 ft | 221 kts | 77° |
| 2026-04-24 10:03 | -33.72051 | 151.08540 | 3061 ft | 223 kts | 108° |
| 2026-04-24 10:03 | -33.72920 | 151.10030 | 2988 ft | 216 kts | 131° |
| 2026-04-24 10:03 | -33.73942 | 151.11350 | 2987 ft | 213 kts | 131° |
| 2026-04-24 10:03 | -33.75158 | 151.12352 | 2984 ft | 217 kts | 153° |
| 2026-04-24 10:04 | -33.76579 | 151.12901 | 2985 ft | 207 kts | 162° |
| 2026-04-24 10:04 | -33.77955 | 151.13278 | 2980 ft | 198 kts | 164° |
| 2026-04-24 10:04 | -33.79319 | 151.13634 | 2749 ft | 204 kts | 165° |
| 2026-04-24 10:04 | -33.80719 | 151.13994 | 2478 ft | 208 kts | 165° |
| 2026-04-24 10:05 | -33.82131 | 151.14359 | 2200 ft | 203 kts | 165° |
| 2026-04-24 10:05 | -33.83449 | 151.14697 | 1955 ft | 185 kts | 164° |
| 2026-04-24 10:05 | -33.84658 | 151.15010 | 1721 ft | 171 kts | 164° |
| 2026-04-24 10:05 | -33.85756 | 151.15295 | 1510 ft | 153 kts | 164° |
| 2026-04-24 10:06 | -33.86756 | 151.15556 | 1310 ft | 141 kts | 164° |
| 2026-04-24 10:06 | -33.88625 | 151.16043 | 936 ft | 137 kts | 166° |
| 2026-04-24 10:06 | -33.89559 | 151.16284 | 750 ft | 136 kts | 166° |
| 2026-04-24 10:07 | -33.90474 | 151.16522 | 573 ft | 134 kts | 166° |
| 2026-04-24 10:07 | -33.91391 | 151.16762 | 374 ft | 133 kts | 167° |
| 2026-04-24 10:07 | -33.92284 | 151.16992 | 204 ft | 132 kts | 168° |
| 2026-04-24 10:07 | -33.93184 | 151.17223 | 42 ft | 130 kts | 169° |
| 2026-04-24 10:08 | -33.93965 | 151.17425 | 35 ft | 90 kts | 167° |
| 2026-04-24 10:08 | -33.94408 | 151.17541 | 34 ft | 45 kts | 168° |
| 2026-04-24 10:08 | -33.94702 | 151.17618 | 34 ft | 40 kts | 168° |
| 2026-04-24 10:08 | -33.94872 | 151.17648 | 34 ft | 19 kts | 175° |
| 2026-04-24 10:09 | -33.95009 | 151.17644 | 34 ft | 19 kts | 185° |
| 2026-04-24 10:09 | -33.95091 | 151.17629 | 34 ft | 8 kts | 193° |
| 2026-04-24 10:09 | -33.95143 | 151.17592 | 34 ft | 9 kts | 232° |
| 2026-04-24 10:09 | -33.95137 | 151.17534 | 34 ft | 7 kts | 347° |
| 2026-04-24 10:10 | -33.95094 | 151.17519 | 34 ft | 7 kts | 343° |
| 2026-04-24 10:10 | -33.95028 | 151.17499 | 34 ft | 12 kts | 347° |
| 2026-04-24 10:10 | -33.94929 | 151.17474 | 34 ft | 15 kts | 348° |
| 2026-04-24 10:10 | -33.94819 | 151.17445 | 34 ft | 16 kts | 348° |
| 2026-04-24 10:11 | -33.94702 | 151.17415 | 35 ft | 17 kts | 348° |
| 2026-04-24 10:11 | -33.94580 | 151.17383 | 34 ft | 18 kts | 348° |
| 2026-04-24 10:11 | -33.94454 | 151.17351 | 34 ft | 18 kts | 348° |
| 2026-04-24 10:11 | -33.94323 | 151.17316 | 34 ft | 19 kts | 348° |
| 2026-04-24 10:12 | -33.94189 | 151.17281 | 34 ft | 20 kts | 348° |
| 2026-04-24 10:12 | -33.94058 | 151.17247 | 34 ft | 17 kts | 347° |
| 2026-04-24 10:12 | -33.93988 | 151.17227 | 34 ft | 9 kts | 335° |
| 2026-04-24 10:12 | -33.93985 | 151.17169 | 34 ft | 8 kts | 255° |
| 2026-04-24 10:13 | -33.93962 | 151.17108 | 34 ft | 9 kts | 335° |
| 2026-04-24 10:13 | -33.93913 | 151.17076 | 34 ft | 6 kts | 286° |
| 2026-04-24 10:13 | -33.93919 | 151.17009 | 34 ft | 5 kts | 255° |
| 2026-04-24 10:13 | -33.93924 | 151.16989 | 34 ft | 0 kts | 255° |